createdAt,value
2019-04-27T00:01:14.389Z,102783.77
2019-04-27T00:04:00.860Z,102789.34
2019-04-27T00:06:33.744Z,102783.03
2019-04-27T00:09:16.145Z,102771.86
2019-04-27T00:11:54.590Z,102747.67
2019-04-27T00:14:26.314Z,102743.94
2019-04-27T00:17:15.353Z,102711.27
2019-04-27T00:20:13.090Z,102712.72
2019-04-27T00:22:56.472Z,102745.86
2019-04-27T00:25:28.307Z,102786.02
2019-04-27T00:27:59.636Z,102819.87
2019-04-27T00:30:31.023Z,102833.81
2019-04-27T00:33:05.162Z,102871.80
2019-04-27T00:35:45.327Z,102900.45
2019-04-27T00:38:25.453Z,102918.47
2019-04-27T00:41:19.790Z,102942.27
2019-04-27T00:43:53.086Z,102981.43
2019-04-27T00:46:24.682Z,102987.33
2019-04-27T00:48:56.136Z,103007.05
2019-04-27T00:51:27.590Z,103024.48
2019-04-27T00:53:59.208Z,103036.92
2019-04-27T00:56:58.571Z,103043.63
2019-04-27T01:00:01.030Z,103041.25
2019-04-27T01:02:53.641Z,103005.09
2019-04-27T01:05:26.520Z,102920.66
2019-04-27T01:07:57.808Z,102328.63
2019-04-27T01:10:29.276Z,102320.62
2019-04-27T01:13:00.516Z,102312.34
2019-04-27T01:15:33.815Z,102304.17
2019-04-27T01:18:13.319Z,102311.36
2019-04-27T01:20:40.005Z,102337.83
2019-04-27T01:23:11.206Z,102326.47
2019-04-27T01:25:59.393Z,102323.77
2019-04-27T01:28:35.204Z,102323.30
2019-04-27T01:31:09.234Z,102344.20
2019-04-27T01:33:40.866Z,102361.38
2019-04-27T01:36:12.630Z,102371.89
2019-04-27T01:38:44.835Z,102411.20
2019-04-27T01:41:16.271Z,102427.30
2019-04-27T01:43:49.028Z,102445.91
2019-04-27T01:46:20.538Z,102462.78
2019-04-27T01:48:52.166Z,102482.91
2019-04-27T01:51:23.481Z,102486.86
2019-04-27T01:53:55.135Z,102472.61
2019-04-27T01:56:26.997Z,102479.20
2019-04-27T01:58:59.558Z,102464.00
2019-04-27T02:02:03.680Z,102442.05
2019-04-27T02:04:52.680Z,102365.25
2019-04-27T02:07:24.410Z,102117.80
2019-04-27T02:09:55.580Z,102137.63
2019-04-27T02:12:29.448Z,102147.28
2019-04-27T02:15:00.866Z,102135.23
2019-04-27T02:17:32.192Z,102146.30
2019-04-27T02:20:04.000Z,102158.63
2019-04-27T02:22:38.456Z,102163.42
2019-04-27T02:25:10.400Z,102173.60
2019-04-27T02:27:44.650Z,102189.84
2019-04-27T02:30:46.294Z,100015.01
2019-04-27T02:33:36.406Z,99930.63
2019-04-27T02:36:14.005Z,99757.67
2019-04-27T02:38:42.191Z,99675.23
2019-04-27T02:41:15.264Z,99579.67
2019-04-27T02:44:02.223Z,99513.32
2019-04-27T02:46:33.546Z,99433.20
2019-04-27T02:49:07.160Z,99383.31
2019-04-27T02:51:54.441Z,99336.30
2019-04-27T02:54:25.574Z,99282.51
2019-04-27T02:56:59.223Z,99251.86
2019-04-27T02:59:30.427Z,99223.05
2019-04-27T03:02:10.836Z,99191.26
2019-04-27T03:04:42.180Z,99189.02
2019-04-27T03:07:13.713Z,99196.61
2019-04-27T03:09:44.946Z,99156.21
2019-04-27T03:12:19.213Z,99161.47
2019-04-27T03:15:00.632Z,99175.17
2019-04-27T03:17:50.127Z,99158.66
2019-04-27T03:20:40.535Z,99129.28
2019-04-27T03:23:12.294Z,99121.88
2019-04-27T03:25:55.097Z,99113.06
2019-04-27T03:28:26.720Z,99099.78
2019-04-27T03:31:02.044Z,99090.78
2019-04-27T03:33:32.475Z,99084.67
2019-04-27T03:36:05.670Z,99087.91
2019-04-27T03:38:39.692Z,99093.33
2019-04-27T03:41:11.342Z,99100.92
2019-04-27T03:43:45.494Z,99109.99
2019-04-27T03:46:16.801Z,99106.80
2019-04-27T03:48:49.713Z,99095.56
2019-04-27T03:51:35.813Z,99094.99
2019-04-27T03:54:14.874Z,99122.28
2019-04-27T03:56:50.885Z,99153.70
2019-04-27T03:59:41.494Z,99155.78
2019-04-27T04:02:13.048Z,99152.24
2019-04-27T04:04:44.335Z,99157.88
2019-04-27T04:07:16.899Z,99159.34
2019-04-27T04:09:50.310Z,99162.81
2019-04-27T04:12:35.622Z,99172.77
2019-04-27T04:15:11.654Z,99158.77
2019-04-27T04:17:42.850Z,99170.34
2019-04-27T04:20:14.124Z,99175.56
2019-04-27T04:22:51.476Z,99145.48
2019-04-27T04:25:22.844Z,99123.03
2019-04-27T04:27:54.081Z,99109.23
2019-04-27T04:30:25.387Z,99089.16
2019-04-27T04:32:56.553Z,99076.88
2019-04-27T04:35:32.548Z,99050.31
2019-04-27T04:38:01.993Z,99040.68
2019-04-27T04:40:40.056Z,99013.73
2019-04-27T04:43:20.663Z,95442.50
2019-04-27T04:46:12.343Z,95366.45
2019-04-27T04:48:42.203Z,95278.58
2019-04-27T04:51:13.373Z,95217.45
2019-04-27T04:53:44.588Z,95174.56
2019-04-27T04:56:16.238Z,95153.56
2019-04-27T04:58:49.616Z,95111.95
2019-04-27T05:01:20.329Z,95124.06
2019-04-27T05:03:51.555Z,95041.75
2019-04-27T05:06:25.456Z,94994.89
2019-04-27T05:08:55.986Z,94966.05
2019-04-27T05:11:27.534Z,94942.36
2019-04-27T05:13:59.373Z,94898.82
2019-04-27T05:16:32.913Z,94872.08
2019-04-27T05:19:04.117Z,94836.08
2019-04-27T05:21:35.989Z,94770.36
2019-04-27T05:24:09.206Z,94731.14
2019-04-27T05:26:40.052Z,94700.25
2019-04-27T05:29:11.290Z,94666.63
2019-04-27T05:31:44.101Z,94620.27
2019-04-27T05:34:15.244Z,94567.80
2019-04-27T05:36:48.492Z,94564.06
2019-04-27T05:39:24.706Z,94545.00
2019-04-27T05:41:52.274Z,94532.55
2019-04-27T05:44:45.650Z,94479.98
2019-04-27T05:47:48.405Z,94478.07
2019-04-27T05:50:21.859Z,94479.41
2019-04-27T05:52:51.037Z,94454.23
2019-04-27T05:55:22.577Z,94441.70
2019-04-27T05:57:53.824Z,94436.22
2019-04-27T06:00:25.785Z,94476.23
2019-04-27T06:02:58.921Z,94491.17
2019-04-27T06:05:30.137Z,94492.50
2019-04-27T06:08:03.305Z,94493.80
2019-04-27T06:10:34.603Z,94401.86
2019-04-27T06:13:05.961Z,94501.30
2019-04-27T06:15:38.974Z,94487.92
2019-04-27T06:18:10.750Z,94461.20
2019-04-27T06:20:53.481Z,94461.55
2019-04-27T06:23:18.641Z,94505.66
2019-04-27T06:25:50.416Z,94502.58
2019-04-27T06:28:22.281Z,94523.49
2019-04-27T06:30:53.523Z,94544.73
2019-04-27T06:33:31.969Z,94587.98
2019-04-27T06:36:11.219Z,95133.95
2019-04-27T06:38:44.078Z,94584.13
2019-04-27T06:41:16.632Z,94618.41
2019-04-27T06:43:49.480Z,94632.97
2019-04-27T06:46:20.892Z,94606.72
2019-04-27T06:48:52.449Z,94660.09
2019-04-27T06:51:28.814Z,94749.45
2019-04-27T06:54:01.954Z,94841.66
2019-04-27T06:56:34.087Z,94883.25
2019-04-27T06:59:08.729Z,94908.97
2019-04-27T07:01:40.339Z,94942.11
2019-04-27T07:04:12.376Z,94945.39
2019-04-27T07:06:53.253Z,94947.00
2019-04-27T07:09:16.693Z,95014.86
2019-04-27T07:11:49.389Z,95232.55
2019-04-27T07:14:21.973Z,95946.05
2019-04-27T07:16:53.936Z,96340.74
2019-04-27T07:19:25.307Z,96533.42
2019-04-27T07:21:59.458Z,97145.97
2019-04-27T07:24:31.193Z,97468.79
2019-04-27T07:27:03.243Z,97363.10
2019-04-27T07:29:34.615Z,97472.97
2019-04-27T07:32:06.139Z,98131.30
2019-04-27T07:34:38.805Z,98396.53
2019-04-27T07:37:11.191Z,98475.75
2019-04-27T07:39:43.084Z,98451.25
2019-04-27T07:42:15.537Z,98696.55
2019-04-27T07:45:03.291Z,98895.61
2019-04-27T07:47:35.268Z,99077.25
2019-04-27T07:50:09.670Z,99120.23
2019-04-27T07:52:41.563Z,99282.68
2019-04-27T07:55:13.283Z,99191.13
2019-04-27T07:57:46.136Z,99279.45
2019-04-27T08:00:19.146Z,99020.30
2019-04-27T08:02:50.739Z,99433.10
2019-04-27T08:05:22.644Z,99546.27
2019-04-27T08:07:54.520Z,99682.52
2019-04-27T08:10:26.230Z,100054.91
2019-04-27T08:13:00.356Z,100142.05
2019-04-27T08:15:31.770Z,100318.72
2019-04-27T08:18:03.762Z,100472.67
2019-04-27T08:20:35.286Z,100510.84
2019-04-27T08:23:06.539Z,100510.70
2019-04-27T08:25:39.228Z,100503.59
2019-04-27T08:28:26.010Z,100523.68
2019-04-27T08:31:08.934Z,100587.03
2019-04-27T08:33:43.525Z,100608.71
2019-04-27T08:36:15.279Z,100594.96
2019-04-27T08:38:46.617Z,100588.70
2019-04-27T08:41:19.714Z,100602.81
2019-04-27T08:43:50.957Z,100560.94
2019-04-27T08:46:22.596Z,100610.91
2019-04-27T08:48:54.242Z,100635.65
2019-04-27T08:51:25.594Z,100704.33
2019-04-27T08:53:57.033Z,100708.46
2019-04-27T08:56:28.413Z,100690.17
2019-04-27T08:58:59.656Z,100696.08
2019-04-27T09:01:32.462Z,100703.88
2019-04-27T09:04:09.209Z,100711.22
2019-04-27T09:06:49.255Z,100693.22
2019-04-27T09:09:34.267Z,100698.56
2019-04-27T09:12:42.623Z,100699.36
2019-04-27T09:15:24.835Z,100709.88
2019-04-27T09:17:58.750Z,100693.34
2019-04-27T09:20:36.742Z,100703.54
2019-04-27T09:23:09.863Z,100710.14
2019-04-27T09:25:41.237Z,100710.09
2019-04-27T09:28:12.855Z,100715.13
2019-04-27T09:30:44.351Z,100718.61
2019-04-27T09:33:15.705Z,100711.18
2019-04-27T09:35:46.935Z,100705.47
2019-04-27T09:38:18.537Z,100702.19
2019-04-27T09:40:50.041Z,100723.78
2019-04-27T09:43:21.229Z,100729.63
2019-04-27T09:45:52.525Z,100737.02
2019-04-27T09:48:25.770Z,100737.62
2019-04-27T09:50:57.075Z,100740.52
2019-04-27T09:53:28.560Z,100737.94
2019-04-27T09:55:59.831Z,100743.86
2019-04-27T09:58:31.207Z,100737.82
2019-04-27T10:01:03.212Z,100736.38
2019-04-27T10:03:36.068Z,100740.14
2019-04-27T10:06:07.345Z,100737.94
2019-04-27T10:08:38.726Z,100736.41
2019-04-27T10:11:09.987Z,100738.31
2019-04-27T10:13:41.505Z,100738.91
2019-04-27T10:16:13.552Z,100732.86
2019-04-27T10:18:45.866Z,100735.16
2019-04-27T10:21:17.183Z,100734.63
2019-04-27T10:23:48.628Z,100724.94
2019-04-27T10:26:19.834Z,100729.63
2019-04-27T10:28:51.282Z,100726.58
2019-04-27T10:31:22.681Z,100722.98
2019-04-27T10:33:55.833Z,100727.19
2019-04-27T10:36:42.870Z,100728.02
2019-04-27T10:39:14.887Z,100722.17
2019-04-27T10:41:47.324Z,100738.47
2019-04-27T10:44:19.141Z,100725.63
2019-04-27T10:46:50.525Z,100720.72
2019-04-27T10:49:21.759Z,100715.95
2019-04-27T10:51:53.123Z,100720.70
2019-04-27T10:54:24.485Z,100719.00
2019-04-27T10:56:56.313Z,100715.45
2019-04-27T10:59:27.722Z,100718.78
2019-04-27T11:01:59.253Z,100715.47
2019-04-27T11:04:43.713Z,100711.12
2019-04-27T11:07:17.507Z,100718.54
2019-04-27T11:09:50.408Z,100708.06
2019-04-27T11:12:22.742Z,100712.46
2019-04-27T11:14:54.358Z,100711.02
2019-04-27T11:17:26.682Z,100711.03
2019-04-27T11:19:58.217Z,100717.67
2019-04-27T11:22:29.848Z,100708.45
2019-04-27T11:25:01.552Z,100711.11
2019-04-27T11:27:32.904Z,100707.40
2019-04-27T11:30:06.604Z,100704.46
2019-04-27T11:32:37.883Z,100705.78
2019-04-27T11:35:35.660Z,100700.78
2019-04-27T11:38:07.248Z,100699.93
2019-04-27T11:40:38.926Z,100700.30
2019-04-27T11:43:10.298Z,100693.83
2019-04-27T11:45:41.616Z,100699.82
2019-04-27T11:48:12.854Z,100705.52
2019-04-27T11:50:45.826Z,100704.44
2019-04-27T11:53:22.851Z,100700.36
2019-04-27T11:55:50.323Z,100701.84
2019-04-27T11:58:21.537Z,100698.94
2019-04-27T12:00:52.715Z,100687.56
2019-04-27T12:03:24.099Z,100683.03
2019-04-27T12:05:59.709Z,100684.75
2019-04-27T12:08:28.331Z,100690.30
2019-04-27T12:10:59.990Z,100689.55
2019-04-27T12:13:31.286Z,100690.66
2019-04-27T12:16:02.590Z,100682.75
2019-04-27T12:18:34.602Z,100691.28
2019-04-27T12:21:06.254Z,100692.73
2019-04-27T12:23:41.272Z,100684.63
2019-04-27T12:26:26.606Z,100681.66
2019-04-27T12:28:58.679Z,100677.95
2019-04-27T12:31:33.250Z,100678.17
2019-04-27T12:34:06.119Z,100675.96
2019-04-27T12:36:37.911Z,100670.56
2019-04-27T12:39:15.626Z,100667.48
2019-04-27T12:41:47.197Z,100668.34
2019-04-27T12:44:18.428Z,100665.98
2019-04-27T12:46:49.727Z,100671.41
2019-04-27T12:49:20.975Z,100674.27
2019-04-27T12:51:52.501Z,100670.30
2019-04-27T12:54:38.284Z,100661.67
2019-04-27T12:57:47.406Z,100672.03
2019-04-27T13:00:26.520Z,100671.66
2019-04-27T13:02:58.336Z,100662.78
2019-04-27T13:05:29.853Z,100665.62
2019-04-27T13:08:02.063Z,100662.03
2019-04-27T13:10:33.287Z,100658.61
2019-04-27T13:13:06.266Z,100661.28
2019-04-27T13:15:38.117Z,100653.74
2019-04-27T13:18:09.462Z,100662.86
2019-04-27T13:20:40.801Z,100659.17
2019-04-27T13:23:12.369Z,100655.95
2019-04-27T13:25:44.058Z,100648.42
2019-04-27T13:28:16.134Z,100652.03
2019-04-27T13:30:47.666Z,100652.50
2019-04-27T13:33:18.968Z,100653.73
2019-04-27T13:35:50.343Z,100651.41
2019-04-27T13:38:21.621Z,100650.05
2019-04-27T13:41:06.333Z,100643.63
2019-04-27T13:43:38.139Z,100645.11
2019-04-27T13:46:34.251Z,100645.00
2019-04-27T13:49:27.570Z,100649.91
2019-04-27T13:52:06.125Z,100646.45
2019-04-27T13:54:37.562Z,100643.84
2019-04-27T13:57:09.594Z,100639.34
2019-04-27T13:59:41.825Z,100634.28
2019-04-27T14:02:15.599Z,100633.01
2019-04-27T14:04:47.204Z,100634.86
2019-04-27T14:07:18.518Z,100632.91
2019-04-27T14:09:50.543Z,100634.58
2019-04-27T14:12:22.068Z,100626.53
2019-04-27T14:14:53.775Z,100626.64
2019-04-27T14:17:25.056Z,100617.18
2019-04-27T14:19:56.753Z,100625.09
2019-04-27T14:22:28.542Z,100611.70
2019-04-27T14:25:01.116Z,100614.05
2019-04-27T14:27:40.456Z,100619.91
2019-04-27T14:30:13.919Z,100618.67
2019-04-27T14:32:45.258Z,100612.44
2019-04-27T14:35:18.126Z,100606.45
2019-04-27T14:37:50.418Z,100616.53
2019-04-27T14:40:21.706Z,100617.87
2019-04-27T14:42:53.738Z,100627.88
2019-04-27T14:45:26.354Z,100622.09
2019-04-27T14:47:58.261Z,100621.98
2019-04-27T14:50:30.146Z,100640.16
2019-04-27T14:53:01.403Z,100635.83
2019-04-27T14:55:33.867Z,100641.72
2019-04-27T14:58:08.646Z,100644.41
2019-04-27T15:00:40.633Z,100636.87
2019-04-27T15:03:11.855Z,100637.37
2019-04-27T15:05:43.124Z,100638.45
2019-04-27T15:08:14.417Z,100647.64
2019-04-27T15:10:46.483Z,100644.95
2019-04-27T15:13:18.982Z,100649.92
2019-04-27T15:15:50.263Z,100644.47
2019-04-27T15:18:23.141Z,100646.09
2019-04-27T15:20:54.351Z,100645.56
2019-04-27T15:23:26.577Z,100657.98
2019-04-27T15:26:00.361Z,100659.38
2019-04-27T15:28:33.299Z,100673.12
2019-04-27T15:31:26.924Z,100678.30
2019-04-27T15:34:11.214Z,100692.56
2019-04-27T15:37:00.611Z,100697.36
2019-04-27T15:39:50.531Z,100709.70
2019-04-27T15:42:30.555Z,100711.74
2019-04-27T15:45:01.866Z,100716.27
2019-04-27T15:47:33.683Z,100724.23
2019-04-27T15:50:05.618Z,100732.63
2019-04-27T15:52:38.361Z,100728.52
2019-04-27T15:55:31.243Z,100739.25
2019-04-27T15:57:47.059Z,100734.20
2019-04-27T16:00:22.093Z,100738.05
2019-04-27T16:02:53.716Z,100738.27
2019-04-27T16:05:28.629Z,100739.47
2019-04-27T16:08:00.986Z,100745.15
2019-04-27T16:10:32.863Z,100753.18
2019-04-27T16:13:06.844Z,100760.92
2019-04-27T16:15:38.389Z,100758.61
2019-04-27T16:18:10.248Z,100759.64
2019-04-27T16:20:41.494Z,100764.70
2019-04-27T16:23:12.827Z,100763.47
2019-04-27T16:25:48.493Z,100766.45
2019-04-27T16:28:18.410Z,100763.86
2019-04-27T16:30:53.007Z,100763.38
2019-04-27T16:33:23.589Z,100760.39
2019-04-27T16:36:00.315Z,100755.28
2019-04-27T16:38:53.158Z,100751.73
2019-04-27T16:41:24.405Z,100759.25
2019-04-27T16:43:58.139Z,100768.38
2019-04-27T16:46:29.530Z,100772.70
2019-04-27T16:49:01.230Z,100777.34
2019-04-27T16:51:36.688Z,100773.98
2019-04-27T16:54:06.470Z,100779.00
2019-04-27T16:56:38.103Z,100785.64
2019-04-27T16:59:34.949Z,100787.45
2019-04-27T17:01:46.278Z,100798.33
2019-04-27T17:04:15.663Z,100794.69
2019-04-27T17:06:49.390Z,100799.89
2019-04-27T17:09:20.404Z,100795.73
2019-04-27T17:11:51.892Z,100790.24
2019-04-27T17:14:35.060Z,100789.37
2019-04-27T17:17:22.293Z,100784.88
2019-04-27T17:19:58.158Z,100786.20
2019-04-27T17:22:29.631Z,100775.42
2019-04-27T17:25:01.257Z,100775.59
2019-04-27T17:27:48.281Z,100783.61
2019-04-27T17:30:20.212Z,100783.88
2019-04-27T17:33:11.751Z,100791.66
2019-04-27T17:35:42.827Z,100792.84
2019-04-27T17:38:15.871Z,100792.61
2019-04-27T17:40:48.446Z,100790.11
2019-04-27T17:43:20.082Z,100788.77
2019-04-27T17:45:52.340Z,100801.45
2019-04-27T17:48:23.525Z,100803.09
2019-04-27T17:50:55.969Z,100795.46
2019-04-27T17:53:29.866Z,100792.87
2019-04-27T17:56:05.704Z,100785.77
2019-04-27T17:58:35.474Z,100784.74
2019-04-27T18:01:09.583Z,100792.23
2019-04-27T18:03:41.342Z,100795.36
2019-04-27T18:06:12.617Z,100804.05
2019-04-27T18:08:43.835Z,100808.28
2019-04-27T18:11:15.140Z,100800.65
2019-04-27T18:13:48.669Z,100802.16
2019-04-27T18:16:23.712Z,100802.15
2019-04-27T18:19:21.562Z,100802.89
2019-04-27T18:22:00.883Z,100806.73
2019-04-27T18:24:39.924Z,100817.48
2019-04-27T18:27:29.137Z,100814.82
2019-04-27T18:30:19.261Z,100825.09
2019-04-27T18:32:50.538Z,100824.34
2019-04-27T18:35:26.362Z,100834.81
2019-04-27T18:37:58.388Z,100829.35
2019-04-27T18:40:32.230Z,100839.55
2019-04-27T18:43:01.984Z,100843.75
2019-04-27T18:45:40.021Z,100844.20
2019-04-27T18:48:13.885Z,100853.74
2019-04-27T18:50:56.521Z,100855.83
2019-04-27T18:53:29.360Z,100868.17
2019-04-27T18:56:05.131Z,100875.19
2019-04-27T18:58:34.634Z,100878.31
2019-04-27T19:01:05.986Z,100872.11
2019-04-27T19:03:39.095Z,100877.13
2019-04-27T19:06:10.347Z,100871.98
2019-04-27T19:08:41.599Z,100879.02
2019-04-27T19:11:12.911Z,100881.72
2019-04-27T19:13:44.085Z,100880.49
2019-04-27T19:16:15.831Z,100884.59
2019-04-27T19:18:48.055Z,100888.48
2019-04-27T19:21:20.145Z,100892.38
2019-04-27T19:23:51.561Z,100899.11
2019-04-27T19:26:29.813Z,100902.98
2019-04-27T19:29:14.979Z,100909.11
2019-04-27T19:31:50.044Z,100914.21
2019-04-27T19:34:21.541Z,100909.73
2019-04-27T19:36:53.973Z,100907.72
2019-04-27T19:39:25.357Z,100907.91
2019-04-27T19:42:01.374Z,100910.99
2019-04-27T19:44:30.476Z,100908.13
2019-04-27T19:47:02.264Z,100911.31
2019-04-27T19:49:34.496Z,100914.32
2019-04-27T19:52:05.710Z,100925.97
2019-04-27T19:54:36.969Z,100914.19
2019-04-27T19:57:09.134Z,100920.27
2019-04-27T19:59:48.947Z,100925.06
2019-04-27T20:02:21.624Z,100915.47
2019-04-27T20:05:03.803Z,100904.39
2019-04-27T20:07:38.060Z,100908.83
2019-04-27T20:10:10.185Z,100916.83
2019-04-27T20:12:51.339Z,100914.14
2019-04-27T20:15:25.297Z,100908.94
2019-04-27T20:17:56.920Z,100911.61
2019-04-27T20:20:28.148Z,100921.16
2019-04-27T20:23:15.006Z,100917.53
2019-04-27T20:25:46.305Z,100916.77
2019-04-27T20:28:17.538Z,100930.73
2019-04-27T20:30:49.146Z,100933.59
2019-04-27T20:33:21.040Z,100937.05
2019-04-27T20:35:52.936Z,100936.03
2019-04-27T20:38:24.134Z,100929.55
2019-04-27T20:40:55.761Z,100924.74
2019-04-27T20:43:28.063Z,100917.69
2019-04-27T20:46:01.021Z,100920.39
2019-04-27T20:48:33.394Z,100923.48
2019-04-27T20:51:04.997Z,100922.05
2019-04-27T20:53:44.178Z,100910.97
2019-04-27T20:56:15.362Z,100920.08
2019-04-27T20:58:50.982Z,100926.47
2019-04-27T21:01:22.173Z,100925.91
2019-04-27T21:04:00.924Z,100932.95
2019-04-27T21:06:42.637Z,100930.09
2019-04-27T21:09:18.793Z,100931.67
2019-04-27T21:11:50.034Z,100931.03
2019-04-27T21:14:21.848Z,100934.83
2019-04-27T21:16:53.143Z,100930.66
2019-04-27T21:19:24.386Z,100925.91
2019-04-27T21:21:55.666Z,100929.63
2019-04-27T21:24:26.935Z,100936.41
2019-04-27T21:26:58.259Z,100907.17
2019-04-27T21:29:31.166Z,100897.86
2019-04-27T21:32:02.681Z,100900.64
2019-04-27T21:34:34.205Z,100912.56
2019-04-27T21:37:05.495Z,100911.52
2019-04-27T21:39:36.846Z,100909.39
2019-04-27T21:42:08.105Z,100897.94
2019-04-27T21:44:39.422Z,100894.48
2019-04-27T21:47:11.173Z,100903.69
2019-04-27T21:49:43.024Z,100849.45
2019-04-27T21:52:24.011Z,100822.67
2019-04-27T21:54:55.822Z,100821.47
2019-04-27T21:57:27.101Z,100815.49
2019-04-27T21:59:58.573Z,100828.69
2019-04-27T22:02:32.638Z,100814.15
2019-04-27T22:05:03.815Z,100814.75
2019-04-27T22:07:37.565Z,100808.91
2019-04-27T22:10:10.594Z,100804.08
2019-04-27T22:12:42.213Z,100809.14
2019-04-27T22:15:14.388Z,100813.71
2019-04-27T22:17:46.114Z,100823.05
2019-04-27T22:20:17.933Z,100818.88
2019-04-27T22:22:51.666Z,100824.55
2019-04-27T22:25:23.552Z,100813.03
2019-04-27T22:27:55.229Z,100825.99
2019-04-27T22:30:28.280Z,100826.22
2019-04-27T22:33:01.478Z,100824.63
2019-04-27T22:35:33.034Z,100810.17
2019-04-27T22:38:05.232Z,100804.02
2019-04-27T22:40:56.970Z,100779.87
2019-04-27T22:44:13.583Z,100766.52
2019-04-27T22:59:24.523Z,100223.80
2019-04-27T23:02:13.671Z,96836.23
2019-04-27T23:04:54.124Z,96809.64
2019-04-27T23:07:28.157Z,96744.63
2019-04-27T23:10:01.808Z,96722.41
2019-04-27T23:12:33.666Z,96683.19
2019-04-27T23:18:03.288Z,96618.86
2019-04-27T23:20:35.378Z,96590.63
2019-04-27T23:23:06.817Z,96529.83
2019-04-27T23:26:01.824Z,96540.84
2019-04-27T23:28:35.113Z,96495.45
2019-04-27T23:31:22.194Z,96535.85
2019-04-27T23:33:53.841Z,96541.98
2019-04-27T23:36:26.634Z,96535.80
2019-04-27T23:38:58.454Z,96472.28
2019-04-27T23:41:30.204Z,96417.37
2019-04-27T23:44:01.954Z,96398.84
2019-04-27T23:46:34.673Z,96349.48
2019-04-27T23:49:05.949Z,96341.00
2019-04-27T23:51:43.776Z,96342.43
2019-04-27T23:54:15.387Z,96289.92
2019-04-27T23:56:48.465Z,96269.64
2019-04-27T23:59:24.959Z,96294.48
